createdAt,value
2018-05-11T00:00:11.404Z,6.05
2018-05-11T00:02:37.822Z,5.62
2018-05-11T00:05:04.376Z,6.15
2018-05-11T00:07:30.811Z,6.00
2018-05-11T00:09:57.203Z,6.03
2018-05-11T00:12:24.034Z,5.30
2018-05-11T00:14:50.407Z,6.18
2018-05-11T00:17:16.819Z,4.85
2018-05-11T00:19:43.203Z,5.87
2018-05-11T00:22:10.374Z,6.50
2018-05-11T00:24:36.875Z,6.00
2018-05-11T00:27:03.281Z,5.90
2018-05-11T00:29:29.814Z,6.00
2018-05-11T00:31:56.369Z,5.62
2018-05-11T00:34:22.856Z,5.90
2018-05-11T00:36:49.402Z,6.05
2018-05-11T00:39:15.801Z,5.40
2018-05-11T00:41:42.286Z,6.30
2018-05-11T00:44:08.741Z,6.57
2018-05-11T00:46:35.188Z,5.43
2018-05-11T00:49:02.730Z,5.78
2018-05-11T00:51:29.225Z,5.50
2018-05-11T00:53:55.654Z,6.20
2018-05-11T00:56:22.097Z,5.35
2018-05-11T00:58:48.440Z,6.22
2018-05-11T01:01:14.827Z,6.18
2018-05-11T01:03:41.199Z,6.40
2018-05-11T01:06:07.622Z,5.65
2018-05-11T01:08:34.045Z,6.57
2018-05-11T01:11:00.480Z,6.90
2018-05-11T01:13:26.836Z,6.00
2018-05-11T01:15:53.265Z,6.43
2018-05-11T01:18:19.711Z,5.68
2018-05-11T01:20:46.135Z,6.10
2018-05-11T01:23:12.523Z,7.43
2018-05-11T01:25:38.899Z,6.00
2018-05-11T01:28:05.323Z,6.78
2018-05-11T01:30:32.058Z,5.32
2018-05-11T01:32:58.550Z,5.85
2018-05-11T01:35:24.950Z,5.68
2018-05-11T01:37:51.288Z,5.40
2018-05-11T01:40:17.752Z,5.12
2018-05-11T01:42:44.121Z,5.55
2018-05-11T01:45:10.581Z,5.28
2018-05-11T01:47:36.978Z,5.60
2018-05-11T01:50:03.398Z,5.00
2018-05-11T01:52:29.796Z,4.60
2018-05-11T01:54:56.241Z,5.37
2018-05-11T01:57:22.790Z,6.40
2018-05-11T01:59:49.222Z,6.18
2018-05-11T02:02:15.565Z,4.85
2018-05-11T02:04:42.048Z,5.50
2018-05-11T02:07:08.468Z,5.95
2018-05-11T02:09:35.632Z,5.22
2018-05-11T02:12:02.079Z,5.05
2018-05-11T02:14:28.507Z,5.25
2018-05-11T02:16:54.875Z,4.90
2018-05-11T02:19:21.299Z,5.68
2018-05-11T02:21:47.737Z,5.32
2018-05-11T02:24:14.466Z,6.62
2018-05-11T02:26:40.825Z,5.82
2018-05-11T02:29:07.212Z,5.00
2018-05-11T02:31:33.630Z,6.03
2018-05-11T02:34:00.057Z,5.80
2018-05-11T02:36:27.194Z,4.78
2018-05-11T02:38:53.564Z,5.28
2018-05-11T02:41:19.969Z,5.35
2018-05-11T02:43:46.317Z,7.37
2018-05-11T02:46:12.727Z,5.95
2018-05-11T02:48:39.202Z,5.37
2018-05-11T02:51:05.556Z,5.68
2018-05-11T02:53:31.943Z,5.20
2018-05-11T02:55:59.254Z,5.25
2018-05-11T02:58:26.382Z,7.00
2018-05-11T03:00:52.858Z,5.87
2018-05-11T03:03:19.823Z,5.68
2018-05-11T03:05:46.255Z,6.65
2018-05-11T03:08:12.718Z,5.95
2018-05-11T03:10:39.948Z,6.45
2018-05-11T03:13:06.376Z,7.45
2018-05-11T03:15:33.527Z,7.05
2018-05-11T03:17:59.963Z,7.75
2018-05-11T03:20:26.608Z,8.55
2018-05-11T03:22:53.135Z,9.23
2018-05-11T03:25:19.574Z,9.13
2018-05-11T03:27:45.982Z,10.27
2018-05-11T03:30:12.431Z,10.93
2018-05-11T03:32:38.952Z,11.12
2018-05-11T03:35:05.369Z,11.65
2018-05-11T03:37:31.720Z,12.90
2018-05-11T03:39:58.161Z,12.48
2018-05-11T03:42:24.543Z,13.48
2018-05-11T03:44:51.903Z,12.00
2018-05-11T03:47:18.452Z,11.98
2018-05-11T03:49:45.055Z,12.37
2018-05-11T03:52:12.163Z,12.15
2018-05-11T03:54:38.497Z,11.35
2018-05-11T03:57:04.952Z,11.77
2018-05-11T03:59:31.285Z,10.77
2018-05-11T04:02:16.276Z,11.10
2018-05-11T04:05:01.280Z,11.90
2018-05-11T04:10:40.025Z,10.13
2018-05-11T04:13:06.426Z,11.02
2018-05-11T04:15:33.602Z,10.57
2018-05-11T04:18:00.076Z,11.63
2018-05-11T04:20:26.520Z,10.88
2018-05-11T04:22:53.654Z,11.20
2018-05-11T04:25:19.984Z,11.65
2018-05-11T04:27:46.946Z,12.10
2018-05-11T04:30:14.032Z,10.55
2018-05-11T04:32:40.438Z,11.55
2018-05-11T04:35:06.797Z,10.25
2018-05-11T04:37:33.903Z,12.00
2018-05-11T04:40:01.151Z,10.43
2018-05-11T04:42:28.459Z,10.25
2018-05-11T04:44:54.828Z,10.48
2018-05-11T04:47:21.975Z,10.80
2018-05-11T04:49:48.705Z,8.90
2018-05-11T04:52:15.829Z,8.88
2018-05-11T04:54:42.219Z,9.63
2018-05-11T04:57:08.637Z,9.02
2018-05-11T04:59:35.740Z,8.52
2018-05-11T05:02:02.215Z,8.70
2018-05-11T05:04:28.656Z,8.23
2018-05-11T05:06:55.192Z,7.95
2018-05-11T05:09:21.531Z,7.53
2018-05-11T05:11:47.975Z,8.02
2018-05-11T05:14:14.584Z,7.78
2018-05-11T05:16:40.957Z,8.18
2018-05-11T05:19:07.479Z,8.20
2018-05-11T05:21:34.590Z,8.93
2018-05-11T05:24:01.758Z,9.75
2018-05-11T05:26:28.264Z,8.57
2018-05-11T05:28:54.629Z,8.65
2018-05-11T05:31:21.076Z,9.20
2018-05-11T05:33:49.650Z,8.75
2018-05-11T05:36:16.144Z,9.38
2018-05-11T05:38:42.519Z,8.45
2018-05-11T05:41:08.906Z,8.98
2018-05-11T05:43:35.368Z,8.23
2018-05-11T05:46:01.885Z,6.95
2018-05-11T05:48:28.314Z,9.50
2018-05-11T05:50:54.761Z,6.30
2018-05-11T05:53:21.130Z,5.20
2018-05-11T05:55:47.558Z,5.93
2018-05-11T05:58:13.893Z,5.83
2018-05-11T06:00:40.327Z,5.60
2018-05-11T06:03:06.754Z,5.83
2018-05-11T06:05:33.138Z,5.50
2018-05-11T06:08:03.861Z,5.67
2018-05-11T06:10:31.047Z,5.83
2018-05-11T06:12:57.461Z,5.60
2018-05-11T06:15:23.936Z,6.63
2018-05-11T06:17:50.394Z,5.50
2018-05-11T06:20:16.952Z,6.70
2018-05-11T06:22:43.554Z,6.30
2018-05-11T06:25:09.943Z,6.40
2018-05-11T06:27:36.412Z,7.20
2018-05-11T06:30:03.111Z,5.20
2018-05-11T06:32:29.564Z,6.27
2018-05-11T06:34:56.152Z,6.50
2018-05-11T06:37:26.989Z,7.40
2018-05-11T06:39:54.497Z,6.20
2018-05-11T06:42:20.916Z,7.20
2018-05-11T06:44:47.387Z,6.07
2018-05-11T06:47:13.793Z,6.87
2018-05-11T06:49:40.251Z,6.13
2018-05-11T06:52:07.403Z,6.50
2018-05-11T06:54:33.916Z,7.20
2018-05-11T06:57:00.478Z,7.77
2018-05-11T06:59:27.883Z,8.70
2018-05-11T07:01:55.176Z,7.50
2018-05-11T07:04:22.702Z,8.17
2018-05-11T07:06:49.415Z,8.93
2018-05-11T07:09:16.009Z,8.75
2018-05-11T07:11:42.609Z,9.32
2018-05-11T07:14:09.054Z,10.50
2018-05-11T07:16:36.670Z,9.75
2018-05-11T07:19:07.499Z,9.23
2018-05-11T07:21:34.018Z,9.23
2018-05-11T07:24:01.008Z,9.15
2018-05-11T07:26:27.519Z,9.85
2018-05-11T07:28:53.979Z,9.50
2018-05-11T07:31:20.474Z,10.68
2018-05-11T07:33:46.954Z,8.90
2018-05-11T07:36:13.424Z,10.18
2018-05-11T07:38:40.485Z,9.95
2018-05-11T07:41:07.453Z,10.25
2018-05-11T07:43:33.982Z,11.10
2018-05-11T07:46:00.448Z,9.80
2018-05-11T07:48:26.960Z,10.90
2018-05-11T07:50:53.526Z,10.88
2018-05-11T07:53:20.869Z,11.30
2018-05-11T07:55:47.308Z,12.07
2018-05-11T07:58:13.830Z,11.10
2018-05-11T08:00:40.379Z,12.52
2018-05-11T08:03:07.808Z,12.30
2018-05-11T08:05:34.317Z,12.13
2018-05-11T08:08:01.203Z,11.23
2018-05-11T08:10:27.615Z,13.05
2018-05-11T08:12:54.231Z,12.77
2018-05-11T08:15:20.843Z,11.12
2018-05-11T08:17:47.436Z,12.43
2018-05-11T08:20:13.979Z,11.80
2018-05-11T08:22:40.958Z,12.40
2018-05-11T08:25:08.003Z,11.50
2018-05-11T08:27:34.539Z,12.30
2018-05-11T08:30:01.135Z,12.90
2018-05-11T08:32:28.357Z,12.07
2018-05-11T08:34:54.919Z,13.77
2018-05-11T08:37:21.352Z,13.40
2018-05-11T08:39:48.007Z,14.00
2018-05-11T08:42:14.493Z,13.63
2018-05-11T08:44:41.654Z,14.37
2018-05-11T08:47:08.941Z,12.83
2018-05-11T08:49:36.194Z,13.30
2018-05-11T08:52:03.028Z,15.07
2018-05-11T08:54:30.425Z,14.70
2018-05-11T08:56:56.979Z,14.27
2018-05-11T08:59:25.118Z,14.90
2018-05-11T09:01:52.323Z,13.33
2018-05-11T09:04:18.824Z,14.43
2018-05-11T09:06:45.288Z,14.83
2018-05-11T09:09:14.322Z,15.00
2018-05-11T09:11:41.590Z,15.17
2018-05-11T09:14:08.455Z,15.07
2018-05-11T09:16:35.092Z,15.40
2018-05-11T09:19:01.636Z,17.60
2018-05-11T09:21:28.307Z,15.63
2018-05-11T09:23:55.517Z,16.63
2018-05-11T09:26:22.092Z,14.00
2018-05-11T09:28:49.450Z,15.17
2018-05-11T09:31:16.615Z,15.83
2018-05-11T09:33:43.082Z,15.50
2018-05-11T09:36:09.871Z,16.00
2018-05-11T09:38:37.090Z,17.17
2018-05-11T09:41:03.575Z,14.80
2018-05-11T09:43:30.761Z,17.27
2018-05-11T09:45:57.223Z,16.70
2018-05-11T09:48:23.711Z,16.30
2018-05-11T09:50:50.169Z,16.60
2018-05-11T09:53:16.860Z,17.60
2018-05-11T09:55:43.289Z,17.17
2018-05-11T09:58:09.753Z,17.27
2018-05-11T10:00:36.302Z,17.60
2018-05-11T10:03:02.884Z,17.40
2018-05-11T10:05:29.344Z,18.53
2018-05-11T10:07:56.217Z,17.33
2018-05-11T10:10:22.507Z,16.63
2018-05-11T10:12:48.969Z,17.87
2018-05-11T10:15:15.886Z,17.60
2018-05-11T10:17:42.322Z,18.90
2018-05-11T10:20:08.878Z,18.60
2018-05-11T10:22:35.443Z,18.30
2018-05-11T10:25:02.024Z,18.37
2018-05-11T10:27:28.451Z,18.30
2018-05-11T10:29:54.932Z,17.23
2018-05-11T10:32:22.183Z,18.47
2018-05-11T10:34:48.703Z,20.50
2018-05-11T10:37:19.502Z,17.90
2018-05-11T10:39:45.980Z,19.53
2018-05-11T10:42:12.438Z,19.30
2018-05-11T10:44:39.916Z,16.50
2018-05-11T10:47:06.494Z,19.03
2018-05-11T10:49:32.966Z,17.60
2018-05-11T10:51:59.587Z,15.40
2018-05-11T10:54:26.001Z,15.17
2018-05-11T10:56:52.515Z,15.43
2018-05-11T10:59:19.564Z,14.50
2018-05-11T11:01:46.103Z,13.90
2018-05-11T11:04:12.631Z,15.83
2018-05-11T11:06:43.557Z,14.40
2018-05-11T11:09:10.019Z,16.40
2018-05-11T11:11:36.458Z,14.80
2018-05-11T11:14:02.979Z,14.37
2018-05-11T11:16:29.451Z,15.33
2018-05-11T11:18:55.834Z,14.40
2018-05-11T11:21:22.415Z,15.87
2018-05-11T11:23:48.920Z,13.43
2018-05-11T11:26:15.407Z,15.00
2018-05-11T11:28:42.539Z,14.37
2018-05-11T11:31:09.721Z,13.70
2018-05-11T11:33:36.271Z,14.83
2018-05-11T11:36:02.779Z,14.40
2018-05-11T11:38:29.231Z,13.00
2018-05-11T11:40:55.706Z,14.20
2018-05-11T11:43:22.378Z,12.70
2018-05-11T11:45:48.883Z,13.10
2018-05-11T11:48:15.323Z,12.60
2018-05-11T11:50:42.551Z,13.37
2018-05-11T11:53:09.327Z,13.50
2018-05-11T11:55:36.627Z,11.80
2018-05-11T11:58:03.117Z,12.90
2018-05-11T12:00:29.541Z,11.00
2018-05-11T12:02:56.045Z,12.00
2018-05-11T12:05:22.570Z,10.23
2018-05-11T12:07:49.738Z,9.57
2018-05-11T12:10:16.374Z,9.97
2018-05-11T12:12:42.979Z,11.47
2018-05-11T12:15:09.425Z,10.43
2018-05-11T12:17:35.859Z,9.47
2018-05-11T12:20:02.428Z,9.90
2018-05-11T12:22:29.668Z,9.90
2018-05-11T12:24:56.929Z,8.37
2018-05-11T12:27:23.473Z,11.80
2018-05-11T12:29:50.124Z,9.00
2018-05-11T12:32:16.613Z,9.23
2018-05-11T12:34:43.065Z,7.73
2018-05-11T12:37:10.321Z,8.27
2018-05-11T12:39:37.508Z,9.40
2018-05-11T12:42:04.237Z,8.97
2018-05-11T12:44:30.660Z,7.13
2018-05-11T12:46:57.106Z,7.20
2018-05-11T12:49:23.578Z,8.90
2018-05-11T12:51:49.972Z,9.20
2018-05-11T12:54:16.435Z,7.73
2018-05-11T12:56:42.901Z,7.20
2018-05-11T12:59:10.029Z,7.20
2018-05-11T13:01:36.450Z,6.27
2018-05-11T13:04:02.887Z,6.97
2018-05-11T13:06:29.668Z,7.40
2018-05-11T13:08:56.402Z,8.03
2018-05-11T13:11:22.894Z,7.10
2018-05-11T13:13:49.444Z,5.60
2018-05-11T13:16:16.657Z,5.93
2018-05-11T13:18:43.225Z,5.37
2018-05-11T13:21:09.861Z,7.50
2018-05-11T13:23:36.430Z,7.13
2018-05-11T13:26:02.914Z,5.60
2018-05-11T13:28:29.399Z,6.27
2018-05-11T13:30:55.866Z,5.20
2018-05-11T13:33:22.431Z,6.30
2018-05-11T13:35:48.940Z,6.37
2018-05-11T13:38:15.396Z,6.27
2018-05-11T13:40:41.855Z,5.80
2018-05-11T13:43:08.368Z,6.30
2018-05-11T13:45:34.879Z,6.83
2018-05-11T13:48:01.441Z,4.90
2018-05-11T13:50:28.777Z,6.50
2018-05-11T13:52:55.274Z,6.87
2018-05-11T13:55:21.739Z,6.20
2018-05-11T13:57:48.180Z,8.77
2018-05-11T14:00:14.575Z,5.73
2018-05-11T14:02:41.028Z,6.50
2018-05-11T14:05:07.539Z,7.57
2018-05-11T14:07:34.149Z,5.70
2018-05-11T14:10:00.680Z,4.97
2018-05-11T14:12:27.141Z,6.17
2018-05-11T14:14:53.873Z,6.00
2018-05-11T14:17:20.414Z,6.90
2018-05-11T14:19:46.989Z,6.17
2018-05-11T14:22:14.192Z,6.30
2018-05-11T14:24:41.353Z,5.50
2018-05-11T14:27:07.823Z,6.53
2018-05-11T14:29:34.236Z,6.10
2018-05-11T14:32:00.966Z,6.43
2018-05-11T14:34:27.576Z,6.57
2018-05-11T14:36:54.234Z,7.00
2018-05-11T14:39:21.600Z,6.67
2018-05-11T14:41:47.953Z,7.13
2018-05-11T14:44:14.475Z,6.30
2018-05-11T14:46:41.745Z,5.73
2018-05-11T14:49:09.085Z,5.90
2018-05-11T14:51:35.579Z,7.60
2018-05-11T14:54:02.120Z,6.20
2018-05-11T14:56:28.611Z,5.17
2018-05-11T14:58:55.189Z,5.67
2018-05-11T15:01:21.672Z,5.30
2018-05-11T15:03:48.144Z,7.33
2018-05-11T15:06:14.633Z,5.80
2018-05-11T15:08:41.902Z,6.40
2018-05-11T15:11:08.368Z,7.13
2018-05-11T15:13:34.807Z,6.83
2018-05-11T15:16:01.268Z,6.43
2018-05-11T15:18:27.678Z,6.70
2018-05-11T15:20:54.166Z,6.50
2018-05-11T15:23:20.754Z,5.27
2018-05-11T15:25:47.226Z,5.47
2018-05-11T15:28:13.759Z,5.60
2018-05-11T15:30:41.016Z,6.57
2018-05-11T15:33:07.494Z,6.23
2018-05-11T15:35:34.090Z,4.70
2018-05-11T15:38:00.521Z,4.67
2018-05-11T15:40:27.184Z,5.13
2018-05-11T15:42:53.521Z,5.30
2018-05-11T15:45:20.060Z,4.80
2018-05-11T15:47:46.596Z,5.50
2018-05-11T15:50:13.032Z,6.30
2018-05-11T15:52:39.904Z,4.57
2018-05-11T15:55:07.368Z,4.43
2018-05-11T15:57:34.086Z,4.90
2018-05-11T16:00:00.743Z,5.33
2018-05-11T16:02:27.216Z,4.73
2018-05-11T16:04:53.898Z,4.80
2018-05-11T16:07:20.369Z,5.97
2018-05-11T16:09:47.370Z,5.87
2018-05-11T16:12:13.849Z,4.70
2018-05-11T16:14:44.226Z,5.10
2018-05-11T16:17:10.759Z,5.17
2018-05-11T16:19:37.853Z,5.40
2018-05-11T16:22:04.314Z,5.77
2018-05-11T16:24:30.741Z,5.20
2018-05-11T16:26:57.223Z,5.50
2018-05-11T16:29:23.857Z,5.67
2018-05-11T16:31:50.361Z,5.00
2018-05-11T16:34:16.856Z,5.40
2018-05-11T16:36:43.444Z,5.00
2018-05-11T16:39:09.999Z,5.37
2018-05-11T16:41:36.622Z,4.70
2018-05-11T16:44:03.139Z,5.67
2018-05-11T16:46:29.767Z,4.40
2018-05-11T16:48:56.236Z,5.90
2018-05-11T16:51:22.846Z,5.50
2018-05-11T16:53:50.055Z,5.63
2018-05-11T16:56:16.710Z,4.60
2018-05-11T16:58:43.350Z,5.57
2018-05-11T17:01:09.903Z,5.27
2018-05-11T17:03:36.520Z,5.47
2018-05-11T17:06:03.079Z,5.03
2018-05-11T17:08:29.772Z,3.90
2018-05-11T17:10:56.626Z,5.50
2018-05-11T17:13:23.235Z,6.50
2018-05-11T17:15:50.578Z,5.50
2018-05-11T17:18:17.366Z,5.53
2018-05-11T17:20:43.932Z,5.87
2018-05-11T17:23:10.503Z,5.80
2018-05-11T17:25:36.971Z,4.93
2018-05-11T17:28:03.509Z,5.77
2018-05-11T17:30:30.440Z,6.60
2018-05-11T17:33:01.428Z,5.77
2018-05-11T17:35:28.042Z,5.93
2018-05-11T17:37:54.669Z,5.43
2018-05-11T17:40:21.108Z,6.00
2018-05-11T17:42:47.644Z,5.50
2018-05-11T17:45:14.201Z,5.13
2018-05-11T17:47:41.498Z,5.50
2018-05-11T17:50:08.001Z,4.90
2018-05-11T17:52:35.373Z,5.30
2018-05-11T17:55:01.921Z,7.30
2018-05-11T17:57:28.395Z,5.83
2018-05-11T17:59:56.069Z,6.47
2018-05-11T18:02:23.332Z,6.43
2018-05-11T18:04:49.771Z,6.87
2018-05-11T18:07:16.187Z,5.83
2018-05-11T18:09:42.851Z,5.83
2018-05-11T18:12:09.388Z,4.83
2018-05-11T18:14:36.896Z,5.90
2018-05-11T18:17:03.389Z,5.27
2018-05-11T18:19:29.940Z,6.40
2018-05-11T18:21:56.846Z,5.60
2018-05-11T18:24:23.255Z,5.30
2018-05-11T18:26:49.706Z,5.50
2018-05-11T18:29:17.079Z,6.13
2018-05-11T18:31:43.594Z,5.80
2018-05-11T18:34:11.856Z,6.27
2018-05-11T18:36:39.076Z,7.00
2018-05-11T18:39:05.535Z,6.23
2018-05-11T18:41:31.985Z,6.70
2018-05-11T18:43:59.245Z,7.00
2018-05-11T18:46:25.778Z,6.97
2018-05-11T18:48:52.315Z,6.17
2018-05-11T18:51:18.850Z,7.30
2018-05-11T18:53:45.605Z,7.53
2018-05-11T18:56:12.691Z,8.20
2018-05-11T18:58:39.903Z,7.77
2018-05-11T19:01:06.541Z,9.33
2018-05-11T19:03:33.169Z,10.00
2018-05-11T19:05:59.695Z,9.10
2018-05-11T19:08:26.408Z,8.90
2018-05-11T19:10:52.925Z,8.50
2018-05-11T19:13:20.266Z,9.60
2018-05-11T19:15:46.806Z,8.60
2018-05-11T19:18:13.312Z,7.80
2018-05-11T19:20:43.947Z,8.60
2018-05-11T19:23:10.441Z,9.83
2018-05-11T19:25:37.011Z,8.93
2018-05-11T19:28:03.717Z,9.30
2018-05-11T19:30:30.263Z,9.23
2018-05-11T19:32:56.859Z,10.20
2018-05-11T19:35:23.358Z,9.80
2018-05-11T19:37:50.035Z,9.50
2018-05-11T19:40:16.504Z,9.07
2018-05-11T19:42:43.128Z,9.20
2018-05-11T19:45:09.590Z,10.60
2018-05-11T19:47:36.082Z,8.60
2018-05-11T19:50:02.594Z,9.00
2018-05-11T19:52:29.080Z,9.80
2018-05-11T19:54:55.560Z,9.00
2018-05-11T19:57:22.125Z,10.43
2018-05-11T19:59:48.543Z,9.37
2018-05-11T20:02:15.053Z,9.50
2018-05-11T20:04:41.521Z,9.90
2018-05-11T20:07:08.037Z,9.37
2018-05-11T20:09:34.561Z,9.07
2018-05-11T20:12:01.352Z,8.70
2018-05-11T20:14:27.974Z,9.33
2018-05-11T20:16:54.454Z,9.50
2018-05-11T20:19:20.970Z,9.37
2018-05-11T20:21:47.609Z,10.48
2018-05-11T20:24:14.446Z,10.20
2018-05-11T20:26:40.993Z,9.15
2018-05-11T20:29:08.508Z,13.45
2018-05-11T20:31:34.955Z,10.83
2018-05-11T20:34:01.539Z,10.80
2018-05-11T20:36:28.276Z,10.85
2018-05-11T20:38:55.651Z,10.65
2018-05-11T20:41:22.328Z,11.50
2018-05-11T20:43:48.837Z,12.67
2018-05-11T20:46:15.349Z,12.15
2018-05-11T20:48:42.640Z,11.10
2018-05-11T20:51:09.989Z,12.53
2018-05-11T20:53:36.757Z,12.95
2018-05-11T20:56:03.257Z,12.90
2018-05-11T20:58:29.854Z,13.40
2018-05-11T21:00:56.534Z,12.30
2018-05-11T21:03:23.056Z,13.50
2018-05-11T21:05:50.242Z,13.43
2018-05-11T21:08:16.772Z,13.27
2018-05-11T21:10:43.282Z,13.82
2018-05-11T21:13:09.721Z,16.42
2018-05-11T21:15:36.150Z,14.98
2018-05-11T21:18:03.673Z,14.45
2018-05-11T21:20:30.992Z,15.23
2018-05-11T21:22:57.459Z,17.02
2018-05-11T21:25:24.678Z,15.45
2018-05-11T21:27:51.172Z,16.47
2018-05-11T21:30:17.658Z,17.20
2018-05-11T21:32:44.130Z,15.97
2018-05-11T21:35:10.582Z,16.60
2018-05-11T21:37:37.067Z,16.75
2018-05-11T21:40:03.560Z,15.60
2018-05-11T21:42:30.015Z,16.02
2018-05-11T21:44:56.467Z,16.10
2018-05-11T21:47:22.995Z,15.50
2018-05-11T21:49:50.371Z,16.67
2018-05-11T21:52:17.617Z,15.48
2018-05-11T21:54:44.836Z,14.63
2018-05-11T21:57:11.470Z,16.80
2018-05-11T21:59:38.126Z,14.40
2018-05-11T22:02:04.644Z,16.20
2018-05-11T22:04:31.152Z,14.40
2018-05-11T22:06:57.593Z,15.82
2018-05-11T22:09:24.154Z,15.63
2018-05-11T22:11:50.601Z,14.73
2018-05-11T22:14:17.931Z,15.60
2018-05-11T22:16:44.319Z,17.20
2018-05-11T22:19:10.777Z,14.80
2018-05-11T22:21:37.226Z,15.93
2018-05-11T22:24:04.513Z,16.12
2018-05-11T22:26:31.096Z,16.87
2018-05-11T22:28:57.555Z,17.33
2018-05-11T22:31:23.967Z,16.00
2018-05-11T22:33:50.489Z,16.58
2018-05-11T22:36:16.984Z,15.15
2018-05-11T22:38:44.185Z,17.20
2018-05-11T22:41:10.630Z,16.55
2018-05-11T22:43:37.029Z,16.60
2018-05-11T22:46:03.535Z,15.80
2018-05-11T22:48:29.935Z,15.32
2018-05-11T22:50:56.382Z,16.62
2018-05-11T22:53:22.817Z,17.97
2018-05-11T22:55:49.301Z,15.60
2018-05-11T22:58:15.752Z,16.50
2018-05-11T23:00:42.195Z,16.55
2018-05-11T23:03:08.674Z,16.90
2018-05-11T23:05:35.102Z,17.90
2018-05-11T23:08:01.549Z,17.12
2018-05-11T23:10:28.101Z,16.85
2018-05-11T23:12:54.539Z,16.15
2018-05-11T23:15:21.481Z,17.00
2018-05-11T23:17:47.945Z,17.73
2018-05-11T23:20:14.472Z,16.35
2018-05-11T23:22:40.904Z,16.08
2018-05-11T23:25:07.382Z,16.33
2018-05-11T23:27:33.819Z,19.05
2018-05-11T23:30:00.267Z,16.37
2018-05-11T23:32:26.697Z,17.23
2018-05-11T23:34:53.147Z,17.33
2018-05-11T23:37:19.556Z,15.65
2018-05-11T23:39:45.966Z,17.23
2018-05-11T23:42:12.425Z,18.00
2018-05-11T23:44:38.922Z,16.77
2018-05-11T23:47:05.302Z,18.25
2018-05-11T23:49:31.787Z,17.98
2018-05-11T23:51:58.958Z,18.12
2018-05-11T23:54:25.838Z,17.45
2018-05-11T23:56:52.270Z,18.12
2018-05-11T23:59:18.704Z,19.10
